createdAt,value
2023-11-07T00:00:15.006Z,1.70
2023-11-07T00:02:42.522Z,2.20
2023-11-07T00:05:13.030Z,2.78
2023-11-07T00:07:40.091Z,3.83
2023-11-07T00:10:08.022Z,3.55
2023-11-07T00:12:35.038Z,4.50
2023-11-07T00:15:01.862Z,3.70
2023-11-07T00:17:28.723Z,4.38
2023-11-07T00:19:57.706Z,4.93
2023-11-07T00:22:25.753Z,5.50
2023-11-07T00:24:54.371Z,4.85
2023-11-07T00:27:21.171Z,4.47
2023-11-07T00:29:48.550Z,4.25
2023-11-07T00:34:42.983Z,3.90
2023-11-07T00:37:10.476Z,3.88
2023-11-07T00:39:37.607Z,4.18
2023-11-07T00:44:33.091Z,3.92
2023-11-07T00:47:00.947Z,3.97
2023-11-07T00:49:28.430Z,5.30
2023-11-07T00:51:55.251Z,3.92
2023-11-07T00:54:21.975Z,4.45
2023-11-07T00:56:48.837Z,4.07
2023-11-07T00:59:15.691Z,3.78
2023-11-07T01:01:42.457Z,3.92
2023-11-07T01:04:10.211Z,3.60
2023-11-07T01:06:37.255Z,4.13
2023-11-07T01:09:05.182Z,3.70
2023-11-07T01:11:32.370Z,3.35
2023-11-07T01:13:59.170Z,3.35
2023-11-07T01:16:26.354Z,4.10
2023-11-07T01:18:53.699Z,3.70
2023-11-07T01:21:20.715Z,3.88
2023-11-07T01:23:47.577Z,3.50
2023-11-07T01:26:14.387Z,3.65
2023-11-07T01:31:09.772Z,3.72
2023-11-07T01:33:37.065Z,3.65
2023-11-07T01:36:04.186Z,4.30
2023-11-07T01:38:31.440Z,3.75
2023-11-07T01:40:58.916Z,3.25
2023-11-07T01:45:52.540Z,4.00
2023-11-07T01:48:23.804Z,3.45
2023-11-07T01:50:51.075Z,2.90
2023-11-07T01:55:45.590Z,3.97
2023-11-07T01:58:13.598Z,3.72
2023-11-07T02:00:41.245Z,3.28
2023-11-07T02:03:08.786Z,3.30
2023-11-07T02:05:36.163Z,3.25
2023-11-07T02:08:05.732Z,3.05
2023-11-07T02:10:33.130Z,3.60
2023-11-07T02:13:00.476Z,3.25
2023-11-07T02:18:03.221Z,3.65
2023-11-07T02:20:32.007Z,3.42
2023-11-07T02:23:05.130Z,3.45
2023-11-07T02:25:32.045Z,3.30
2023-11-07T02:27:59.483Z,3.60
2023-11-07T02:30:26.598Z,3.40
2023-11-07T02:32:53.724Z,3.17
2023-11-07T02:35:20.684Z,3.85
2023-11-07T02:37:49.166Z,3.83
2023-11-07T02:40:16.679Z,3.38
2023-11-07T02:42:43.433Z,3.47
2023-11-07T02:45:10.638Z,3.80
2023-11-07T02:47:41.968Z,3.30
2023-11-07T02:50:11.472Z,3.97
2023-11-07T02:52:38.358Z,3.70
2023-11-07T02:55:07.046Z,4.25
2023-11-07T02:57:33.969Z,3.55
2023-11-07T03:00:00.908Z,3.97
2023-11-07T03:02:28.028Z,4.30
2023-11-07T03:04:55.693Z,3.42
2023-11-07T03:07:22.782Z,2.80
2023-11-07T03:09:49.680Z,2.67
2023-11-07T03:12:17.447Z,2.30
2023-11-07T03:14:44.549Z,2.40
2023-11-07T03:17:11.577Z,2.35
2023-11-07T03:19:38.418Z,2.25
2023-11-07T03:22:05.722Z,2.08
2023-11-07T03:27:00.724Z,1.67
2023-11-07T03:29:27.561Z,2.95
2023-11-07T03:31:54.897Z,2.38
2023-11-07T03:34:22.490Z,2.45
2023-11-07T03:36:49.533Z,2.30
2023-11-07T03:39:16.826Z,2.72
2023-11-07T03:44:11.330Z,2.10
2023-11-07T03:46:38.876Z,2.28
2023-11-07T03:49:06.035Z,3.30
2023-11-07T03:51:33.053Z,3.10
2023-11-07T03:53:59.946Z,3.38
2023-11-07T03:56:26.688Z,2.30
2023-11-07T03:58:53.753Z,2.33
2023-11-07T04:01:20.520Z,2.60
2023-11-07T04:03:47.466Z,2.38
2023-11-07T04:06:14.404Z,2.75
2023-11-07T04:08:41.239Z,2.83
2023-11-07T04:11:07.970Z,2.78
2023-11-07T04:13:35.550Z,2.28
2023-11-07T04:16:03.727Z,2.53
2023-11-07T04:18:30.762Z,2.90
2023-11-07T04:20:58.478Z,2.85
2023-11-07T04:23:25.280Z,3.20
2023-11-07T04:25:51.998Z,2.13
2023-11-07T04:28:18.741Z,3.03
2023-11-07T04:30:45.755Z,3.15
2023-11-07T04:33:13.248Z,2.83
2023-11-07T04:35:42.858Z,3.22
2023-11-07T04:38:09.685Z,3.33
2023-11-07T04:40:36.432Z,3.30
2023-11-07T04:43:03.240Z,3.00
2023-11-07T04:45:29.951Z,3.38
2023-11-07T04:47:56.825Z,2.85
2023-11-07T04:50:23.687Z,3.13
2023-11-07T04:52:50.500Z,3.40
2023-11-07T04:55:17.365Z,3.35
2023-11-07T04:57:45.566Z,3.15
2023-11-07T05:00:13.738Z,3.10
2023-11-07T05:02:41.133Z,3.53
2023-11-07T05:07:35.870Z,5.53
2023-11-07T05:10:05.113Z,4.50
2023-11-07T05:12:32.065Z,4.05
2023-11-07T05:14:58.864Z,3.72
2023-11-07T05:17:25.847Z,3.90
2023-11-07T05:19:52.755Z,3.58
2023-11-07T05:22:19.474Z,3.83
2023-11-07T05:24:46.292Z,3.95
2023-11-07T05:27:13.075Z,4.30
2023-11-07T05:29:39.865Z,4.18
2023-11-07T05:32:06.928Z,3.38
2023-11-07T05:34:33.727Z,4.50
2023-11-07T05:37:00.431Z,4.55
2023-11-07T05:39:30.003Z,3.95
2023-11-07T05:41:56.841Z,3.60
2023-11-07T05:44:23.622Z,3.50
2023-11-07T05:46:51.788Z,3.58
2023-11-07T05:49:18.620Z,3.85
2023-11-07T05:51:45.379Z,3.50
2023-11-07T05:54:12.220Z,3.92
2023-11-07T05:56:39.105Z,3.88
2023-11-07T05:59:08.373Z,3.67
2023-11-07T06:01:35.322Z,3.70
2023-11-07T06:04:02.225Z,3.50
2023-11-07T06:06:29.046Z,4.45
2023-11-07T06:08:55.886Z,5.78
2023-11-07T06:11:22.677Z,5.40
2023-11-07T06:13:49.553Z,4.15
2023-11-07T06:16:16.451Z,4.10
2023-11-07T06:18:43.675Z,3.88
2023-11-07T06:23:38.759Z,3.55
2023-11-07T06:26:07.584Z,3.78
2023-11-07T06:28:34.299Z,4.20
2023-11-07T06:31:01.021Z,4.65
2023-11-07T06:33:28.749Z,4.43
2023-11-07T06:35:55.689Z,4.60
2023-11-07T06:38:26.651Z,4.60
2023-11-07T06:40:53.488Z,4.90
2023-11-07T06:43:20.647Z,5.90
2023-11-07T06:45:47.681Z,5.30
2023-11-07T06:48:14.645Z,5.97
2023-11-07T06:50:41.714Z,5.53
2023-11-07T06:53:10.912Z,5.88
2023-11-07T06:55:38.866Z,6.97
2023-11-07T06:58:05.694Z,6.88
2023-11-07T07:00:32.441Z,7.50
2023-11-07T07:03:02.385Z,4.57
2023-11-07T07:05:29.510Z,5.88
2023-11-07T07:07:58.189Z,5.13
2023-11-07T07:10:26.091Z,5.22
2023-11-07T07:12:52.976Z,4.63
2023-11-07T07:15:19.854Z,4.80
2023-11-07T07:17:46.969Z,4.90
2023-11-07T07:20:14.222Z,4.32
2023-11-07T07:25:16.306Z,4.13
2023-11-07T07:27:47.273Z,4.43
2023-11-07T07:30:27.225Z,4.00
2023-11-07T07:32:54.844Z,4.57
2023-11-07T07:35:22.891Z,4.72
2023-11-07T07:37:54.174Z,4.68
2023-11-07T07:40:30.499Z,4.78
2023-11-07T07:42:59.850Z,4.85
2023-11-07T07:45:27.687Z,4.82
2023-11-07T07:47:54.859Z,5.10
2023-11-07T07:52:55.178Z,7.78
2023-11-07T07:55:31.837Z,5.97
2023-11-07T07:58:02.081Z,5.30
2023-11-07T08:03:00.433Z,5.60
2023-11-07T08:05:29.772Z,6.05
2023-11-07T08:07:56.664Z,5.80
2023-11-07T08:10:23.698Z,4.55
2023-11-07T08:12:52.044Z,4.88
2023-11-07T08:15:19.272Z,5.43
2023-11-07T08:17:46.609Z,5.53
2023-11-07T08:22:43.804Z,4.53
2023-11-07T08:25:14.072Z,5.43
2023-11-07T08:27:42.151Z,5.93
2023-11-07T08:30:11.484Z,4.93
2023-11-07T08:32:38.503Z,5.88
2023-11-07T08:35:07.458Z,5.88
2023-11-07T08:37:35.220Z,5.07
2023-11-07T08:40:04.277Z,5.20
2023-11-07T08:42:32.103Z,5.32
2023-11-07T08:45:00.902Z,5.22
2023-11-07T08:47:28.544Z,5.40
2023-11-07T08:49:58.880Z,5.60
2023-11-07T08:52:25.938Z,5.50
2023-11-07T08:54:53.271Z,5.47
2023-11-07T08:59:46.964Z,5.35
2023-11-07T09:02:14.384Z,4.63
2023-11-07T09:07:07.993Z,5.35
2023-11-07T09:09:35.351Z,5.35
2023-11-07T09:12:02.395Z,5.10
2023-11-07T09:14:29.222Z,5.53
2023-11-07T09:16:56.037Z,5.15
2023-11-07T09:19:22.922Z,5.10
2023-11-07T09:21:49.695Z,5.20
2023-11-07T09:24:16.474Z,5.32
2023-11-07T09:26:43.310Z,5.43
2023-11-07T09:29:10.130Z,5.50
2023-11-07T09:31:36.902Z,5.72
2023-11-07T09:34:03.992Z,5.82
2023-11-07T09:36:31.366Z,6.15
2023-11-07T09:41:26.146Z,5.20
2023-11-07T09:43:53.068Z,5.25
2023-11-07T09:46:24.336Z,5.88
2023-11-07T09:48:52.599Z,5.63
2023-11-07T09:51:22.522Z,6.10
2023-11-07T09:53:52.474Z,6.03
2023-11-07T09:56:23.151Z,5.95
2023-11-07T09:58:51.953Z,5.60
2023-11-07T10:01:20.426Z,5.45
2023-11-07T10:03:49.687Z,6.30
2023-11-07T10:06:18.245Z,5.05
2023-11-07T10:08:45.957Z,4.80
2023-11-07T10:11:16.249Z,5.28
2023-11-07T10:14:02.823Z,9.27
2023-11-07T10:16:37.530Z,6.63
2023-11-07T10:19:06.093Z,5.60
2023-11-07T10:21:33.930Z,5.78
2023-11-07T10:24:01.212Z,5.45
2023-11-07T10:29:17.934Z,5.38
2023-11-07T10:32:04.002Z,5.90
2023-11-07T10:34:31.929Z,5.82
2023-11-07T10:37:00.397Z,5.95
2023-11-07T10:39:27.826Z,7.55
2023-11-07T10:41:57.898Z,6.30
2023-11-07T10:44:26.918Z,7.40
2023-11-07T10:46:54.951Z,6.30
2023-11-07T10:49:22.705Z,5.93
2023-11-07T10:51:51.408Z,5.38
2023-11-07T10:54:22.410Z,6.70
2023-11-07T10:56:51.665Z,6.00
2023-11-07T10:59:21.940Z,6.82
2023-11-07T11:01:53.273Z,4.82
2023-11-07T11:04:26.250Z,5.18
2023-11-07T11:07:00.298Z,5.43
2023-11-07T11:09:28.587Z,5.32
2023-11-07T11:11:59.749Z,4.30
2023-11-07T11:14:27.164Z,3.92
2023-11-07T11:19:41.167Z,7.47
2023-11-07T11:22:39.292Z,6.80
2023-11-07T11:25:34.277Z,5.45
2023-11-07T11:28:03.186Z,4.63
2023-11-07T11:30:34.072Z,4.20
2023-11-07T11:33:08.883Z,4.50
2023-11-07T11:35:39.311Z,5.18
2023-11-07T11:38:14.839Z,4.85
2023-11-07T11:40:47.872Z,5.20
2023-11-07T11:43:14.607Z,4.68
2023-11-07T11:45:46.866Z,4.43
2023-11-07T11:48:14.514Z,6.07
2023-11-07T11:50:41.418Z,4.85
2023-11-07T11:53:10.288Z,4.20
2023-11-07T11:56:08.304Z,3.97
2023-11-07T11:58:35.149Z,5.07
2023-11-07T12:01:05.005Z,5.60
2023-11-07T12:03:47.216Z,5.57
2023-11-07T12:06:14.946Z,6.55
2023-11-07T12:08:44.009Z,7.00
2023-11-07T12:11:11.700Z,5.93
2023-11-07T12:13:38.781Z,4.65
2023-11-07T12:16:12.131Z,5.57
2023-11-07T12:18:41.145Z,4.60
2023-11-07T12:21:09.749Z,4.50
2023-11-07T12:23:37.058Z,6.65
2023-11-07T12:28:31.273Z,4.63
2023-11-07T12:30:58.313Z,5.38
2023-11-07T12:33:25.164Z,4.40
2023-11-07T12:35:56.817Z,5.03
2023-11-07T12:38:25.440Z,5.97
2023-11-07T12:40:52.325Z,5.25
2023-11-07T12:43:19.186Z,8.30
2023-11-07T12:45:49.189Z,6.97
2023-11-07T12:48:25.947Z,7.22
2023-11-07T12:50:52.858Z,8.52
2023-11-07T12:53:20.900Z,7.15
2023-11-07T12:55:51.816Z,7.93
2023-11-07T12:58:29.620Z,9.18
2023-11-07T13:00:58.495Z,8.82
2023-11-07T13:03:29.282Z,7.85
2023-11-07T13:06:10.379Z,8.70
2023-11-07T13:08:39.962Z,8.15
2023-11-07T13:11:20.861Z,10.27
2023-11-07T13:13:50.113Z,7.30
2023-11-07T13:16:18.305Z,6.90
2023-11-07T13:18:57.957Z,6.10
2023-11-07T13:21:25.650Z,6.78
2023-11-07T13:23:52.959Z,6.40
2023-11-07T13:28:47.171Z,5.70
2023-11-07T13:31:14.475Z,6.75
2023-11-07T13:33:43.586Z,7.57
2023-11-07T13:36:17.621Z,9.05
2023-11-07T13:38:47.699Z,7.75
2023-11-07T13:41:15.507Z,7.32
2023-11-07T13:43:42.347Z,6.78
2023-11-07T13:46:09.953Z,6.28
2023-11-07T13:48:37.106Z,5.72
2023-11-07T13:51:04.369Z,7.45
2023-11-07T13:53:31.226Z,7.90
2023-11-07T13:55:57.991Z,7.40
2023-11-07T13:58:24.734Z,7.47
2023-11-07T14:00:51.709Z,7.05
2023-11-07T14:03:18.535Z,11.02
2023-11-07T14:05:46.587Z,6.55
2023-11-07T14:08:15.129Z,7.75
2023-11-07T14:10:41.878Z,8.07
2023-11-07T14:13:08.822Z,6.75
2023-11-07T14:15:36.871Z,9.95
2023-11-07T14:18:13.487Z,9.18
2023-11-07T14:20:50.820Z,9.77
2023-11-07T14:23:17.764Z,9.55
2023-11-07T14:28:12.576Z,10.80
2023-11-07T14:33:16.560Z,10.82
2023-11-07T14:35:43.541Z,10.40
2023-11-07T14:38:10.582Z,9.43
2023-11-07T14:40:37.517Z,11.57
2023-11-07T14:43:07.417Z,11.85
2023-11-07T14:45:34.375Z,11.63
2023-11-07T14:48:01.762Z,13.90
2023-11-07T14:50:28.662Z,14.77
2023-11-07T14:52:56.594Z,8.75
2023-11-07T14:55:23.913Z,4.53
2023-11-07T15:00:28.856Z,3.50
2023-11-07T15:02:58.306Z,7.65
2023-11-07T15:05:30.669Z,8.02
2023-11-07T15:07:58.515Z,8.70
2023-11-07T15:10:30.274Z,10.20
2023-11-07T15:12:58.717Z,13.18
2023-11-07T15:15:27.334Z,13.10
2023-11-07T15:17:54.298Z,12.93
2023-11-07T15:20:21.121Z,11.35
2023-11-07T15:22:47.855Z,13.20
2023-11-07T15:25:14.609Z,14.25
2023-11-07T15:27:43.378Z,13.13
2023-11-07T15:30:11.748Z,11.98
2023-11-07T15:32:39.453Z,12.65
2023-11-07T15:35:10.356Z,13.60
2023-11-07T15:37:41.011Z,13.80
2023-11-07T15:40:11.579Z,15.15
2023-11-07T15:42:39.459Z,17.55
2023-11-07T15:45:10.306Z,18.30
2023-11-07T15:47:37.758Z,21.58
2023-11-07T15:50:06.635Z,21.52
2023-11-07T15:52:34.942Z,25.35
2023-11-07T15:55:04.396Z,22.88
2023-11-07T15:57:31.459Z,7.63
2023-11-07T15:59:58.207Z,8.40
2023-11-07T16:02:28.002Z,12.95
2023-11-07T16:04:54.743Z,12.13
2023-11-07T16:07:21.448Z,17.08
2023-11-07T16:09:48.155Z,16.65
2023-11-07T16:12:14.953Z,10.35
2023-11-07T16:14:42.761Z,12.07
2023-11-07T16:17:09.910Z,11.45
2023-11-07T16:19:36.698Z,12.55
2023-11-07T16:22:03.449Z,10.25
2023-11-07T16:24:30.410Z,11.77
2023-11-07T16:27:09.212Z,10.77
2023-11-07T16:29:36.826Z,10.60
2023-11-07T16:32:04.633Z,10.88
2023-11-07T16:34:32.121Z,11.63
2023-11-07T16:36:59.932Z,11.63
2023-11-07T16:39:27.305Z,12.88
2023-11-07T16:41:54.201Z,16.98
2023-11-07T16:44:22.271Z,16.85
2023-11-07T16:46:51.078Z,27.73
2023-11-07T16:49:18.347Z,28.67
2023-11-07T16:54:11.924Z,18.23
2023-11-07T16:56:38.737Z,14.63
2023-11-07T16:59:05.950Z,11.15
2023-11-07T17:01:32.717Z,10.63
2023-11-07T17:03:59.552Z,9.95
2023-11-07T17:06:26.431Z,8.00
2023-11-07T17:08:53.249Z,8.10
2023-11-07T17:11:19.979Z,9.25
2023-11-07T17:13:46.713Z,12.88
2023-11-07T17:16:14.138Z,15.30
2023-11-07T17:18:41.545Z,15.20
2023-11-07T17:21:08.452Z,13.43
2023-11-07T17:23:35.212Z,13.10
2023-11-07T17:26:02.322Z,10.20
2023-11-07T17:28:29.070Z,12.80
2023-11-07T17:30:55.842Z,10.77
2023-11-07T17:33:23.039Z,12.30
2023-11-07T17:38:16.801Z,11.23
2023-11-07T17:40:43.527Z,13.25
2023-11-07T17:43:10.225Z,14.52
2023-11-07T17:45:37.008Z,13.25
2023-11-07T17:48:04.525Z,13.75
2023-11-07T17:50:32.351Z,10.63
2023-11-07T17:52:59.865Z,10.65
2023-11-07T17:55:26.625Z,12.15
2023-11-07T17:57:53.426Z,12.82
2023-11-07T18:00:20.538Z,12.02
2023-11-07T18:02:47.674Z,11.38
2023-11-07T18:05:14.796Z,12.00
2023-11-07T18:07:41.581Z,10.63
2023-11-07T18:10:10.279Z,10.23
2023-11-07T18:12:37.090Z,10.63
2023-11-07T18:15:05.090Z,10.15
2023-11-07T18:17:33.144Z,10.50
2023-11-07T18:19:59.883Z,11.65
2023-11-07T18:22:26.688Z,11.48
2023-11-07T18:24:53.475Z,11.88
2023-11-07T18:27:20.251Z,10.85
2023-11-07T18:29:47.004Z,11.27
2023-11-07T18:32:15.740Z,9.10
2023-11-07T18:34:42.547Z,10.07
2023-11-07T18:37:10.372Z,11.30
2023-11-07T18:39:39.039Z,10.68
2023-11-07T18:42:06.085Z,8.23
2023-11-07T18:44:35.512Z,8.35
2023-11-07T18:47:03.186Z,14.68
2023-11-07T18:49:30.165Z,16.88
2023-11-07T18:51:56.906Z,14.23
2023-11-07T18:54:24.062Z,12.57
2023-11-07T18:56:51.680Z,10.43
2023-11-07T18:59:30.753Z,13.88
2023-11-07T19:02:01.500Z,19.10
2023-11-07T19:04:28.291Z,15.00
2023-11-07T19:06:55.054Z,9.10
2023-11-07T19:09:22.107Z,10.15
2023-11-07T19:11:48.902Z,9.63
2023-11-07T19:14:15.674Z,8.25
2023-11-07T19:16:43.146Z,16.70
2023-11-07T19:19:10.115Z,12.15
2023-11-07T19:21:39.370Z,15.45
2023-11-07T19:24:07.533Z,17.83
2023-11-07T19:26:34.593Z,16.85
2023-11-07T19:29:01.322Z,14.93
2023-11-07T19:31:28.108Z,14.05
2023-11-07T19:33:54.939Z,14.82
2023-11-07T19:36:21.968Z,16.13
2023-11-07T19:38:49.207Z,13.95
2023-11-07T19:41:15.981Z,7.15
2023-11-07T19:43:43.898Z,5.80
2023-11-07T19:46:11.840Z,8.02
2023-11-07T19:48:39.808Z,9.25
2023-11-07T19:51:06.924Z,6.95
2023-11-07T19:53:34.477Z,6.13
2023-11-07T19:58:29.132Z,5.35
2023-11-07T20:00:57.504Z,5.78
2023-11-07T20:03:30.585Z,5.70
2023-11-07T20:05:57.558Z,5.32
2023-11-07T20:08:24.614Z,3.97
2023-11-07T20:10:51.630Z,3.30
2023-11-07T20:13:18.782Z,4.40
2023-11-07T20:15:45.579Z,4.65
2023-11-07T20:18:13.978Z,4.43
2023-11-07T20:20:41.105Z,4.25
2023-11-07T20:23:10.687Z,4.20
2023-11-07T20:25:37.443Z,4.10
2023-11-07T20:28:04.860Z,5.43
2023-11-07T20:33:07.621Z,7.07
2023-11-07T20:35:36.092Z,3.00
2023-11-07T20:38:08.301Z,2.00
2023-11-07T20:40:36.489Z,1.70
2023-11-07T20:43:09.124Z,1.88
2023-11-07T20:45:36.444Z,1.40
2023-11-07T20:50:30.446Z,1.02
2023-11-07T20:52:57.216Z,1.05
2023-11-07T20:55:23.975Z,1.48
2023-11-07T20:57:58.430Z,2.10
2023-11-07T21:00:28.842Z,4.80
2023-11-07T21:02:55.667Z,1.65
2023-11-07T21:05:22.494Z,2.80
2023-11-07T21:07:50.228Z,1.40
2023-11-07T21:10:17.070Z,0.85
2023-11-07T21:12:43.844Z,1.25
2023-11-07T21:15:11.065Z,1.30
2023-11-07T21:20:11.473Z,1.10
2023-11-07T21:22:40.141Z,1.20
2023-11-07T21:25:07.634Z,0.95
2023-11-07T21:27:35.934Z,0.90
2023-11-07T21:30:06.410Z,0.93
2023-11-07T21:32:34.235Z,1.27
2023-11-07T21:35:01.869Z,1.05
2023-11-07T21:37:28.662Z,1.30
2023-11-07T21:39:55.597Z,1.38
2023-11-07T21:42:23.518Z,1.65
2023-11-07T21:44:50.306Z,1.70
2023-11-07T21:47:17.144Z,2.10
2023-11-07T21:49:44.721Z,2.65
2023-11-07T21:52:12.118Z,3.00
2023-11-07T21:54:41.507Z,3.92
2023-11-07T21:57:08.323Z,3.63
2023-11-07T21:59:35.339Z,4.93
2023-11-07T22:02:02.075Z,1.38
2023-11-07T22:04:28.782Z,1.50
2023-11-07T22:06:55.591Z,1.40
2023-11-07T22:09:22.402Z,1.77
2023-11-07T22:11:49.149Z,1.70
2023-11-07T22:14:16.065Z,2.08
2023-11-07T22:16:43.900Z,2.10
2023-11-07T22:19:11.255Z,1.80
2023-11-07T22:24:05.095Z,1.00
2023-11-07T22:26:31.898Z,0.90
2023-11-07T22:29:03.368Z,1.20
2023-11-07T22:31:30.121Z,1.17
2023-11-07T22:33:56.974Z,1.10
2023-11-07T22:36:27.264Z,1.40
2023-11-07T22:38:54.121Z,2.60
2023-11-07T22:41:20.835Z,1.95
2023-11-07T22:43:47.687Z,2.55
2023-11-07T22:46:14.478Z,2.25
2023-11-07T22:48:41.277Z,2.30
2023-11-07T22:51:08.131Z,2.25
2023-11-07T22:53:35.035Z,2.13
2023-11-07T22:56:01.870Z,2.25
2023-11-07T22:58:28.592Z,3.63
2023-11-07T23:00:57.074Z,4.32
2023-11-07T23:03:26.652Z,3.45
2023-11-07T23:05:53.837Z,2.90
2023-11-07T23:08:20.669Z,2.70
2023-11-07T23:10:48.999Z,2.90
2023-11-07T23:13:18.783Z,2.83
2023-11-07T23:15:48.655Z,2.33
2023-11-07T23:18:15.563Z,2.25
2023-11-07T23:20:42.889Z,0.75
2023-11-07T23:23:10.686Z,0.93
2023-11-07T23:25:37.578Z,0.88
2023-11-07T23:28:05.156Z,0.88
2023-11-07T23:30:32.008Z,0.60
2023-11-07T23:33:01.232Z,0.77
2023-11-07T23:35:28.493Z,0.70
2023-11-07T23:37:57.356Z,0.50
2023-11-07T23:40:25.057Z,0.75
2023-11-07T23:42:51.935Z,0.60
2023-11-07T23:45:19.744Z,0.98
2023-11-07T23:47:46.728Z,0.80
2023-11-07T23:50:13.510Z,1.00
2023-11-07T23:52:40.783Z,1.00
2023-11-07T23:57:35.810Z,1.83
